JST432 YSSY-NZWN
Flight info
| Callsign | JST432 |
|---|---|
| Flight time | 2h 59m |
| Altitude | 39000 |
| Route | KEVIN DCT CAWLY M636 TANEN DCT SIMZI |
| Aircraft | A20N/M-SDE2E3FGHIRWXY/LB1 |
Departure
| Time | 2026-04-25 04:25 |
|---|---|
| Airport | Sydney Kingsford Smith International Airport (YSSY) |
Arrival
| Time | 2026-04-25 07:25 |
|---|---|
| Airport | Wellington International Airport (NZWN) |
| Time | Latitude | Longitude | Altitude | Speed | Heading |
|---|---|---|---|---|---|
| 2026-04-25 03:48 | -33.93557 | 151.18010 | 30 ft | 0 kts | 278° |
| 2026-04-25 04:14 | -33.93559 | 151.18023 | 30 ft | 2 kts | 278° |
| 2026-04-25 04:15 | -33.93561 | 151.18037 | 57 ft | 2 kts | 278° |
| 2026-04-25 04:15 | -33.93560 | 151.18051 | 14 ft | 2 kts | 230° |
| 2026-04-25 04:15 | -33.93551 | 151.18061 | 30 ft | 2 kts | 202° |
| 2026-04-25 04:15 | -33.93542 | 151.18064 | 30 ft | 0 kts | 187° |
| 2026-04-25 04:17 | -33.93544 | 151.18064 | 30 ft | 1 kts | 187° |
| 2026-04-25 04:18 | -33.93575 | 151.18059 | 52 ft | 8 kts | 187° |
| 2026-04-25 04:18 | -33.93620 | 151.18055 | 30 ft | 0 kts | 180° |
| 2026-04-25 04:18 | -33.93647 | 151.18054 | 30 ft | 8 kts | 180° |
| 2026-04-25 04:18 | -33.93698 | 151.18060 | 30 ft | 6 kts | 164° |
| 2026-04-25 04:19 | -33.93762 | 151.18072 | 30 ft | 11 kts | 211° |
| 2026-04-25 04:19 | -33.93800 | 151.17955 | 28 ft | 20 kts | 255° |
| 2026-04-25 04:19 | -33.93826 | 151.17846 | 27 ft | 15 kts | 253° |
| 2026-04-25 04:19 | -33.93835 | 151.17808 | 22 ft | 9 kts | 253° |
| 2026-04-25 04:20 | -33.93902 | 151.17777 | 21 ft | 15 kts | 165° |
| 2026-04-25 04:20 | -33.94018 | 151.17808 | 23 ft | 20 kts | 167° |
| 2026-04-25 04:20 | -33.94159 | 151.17847 | 26 ft | 21 kts | 168° |
| 2026-04-25 04:20 | -33.94318 | 151.17888 | 27 ft | 26 kts | 168° |
| 2026-04-25 04:21 | -33.94458 | 151.17910 | 24 ft | 18 kts | 197° |
| 2026-04-25 04:21 | -33.94574 | 151.17897 | 26 ft | 18 kts | 167° |
| 2026-04-25 04:21 | -33.94691 | 151.17927 | 24 ft | 19 kts | 168° |
| 2026-04-25 04:21 | -33.94837 | 151.17965 | 20 ft | 24 kts | 168° |
| 2026-04-25 04:22 | -33.95011 | 151.18010 | 27 ft | 25 kts | 166° |
| 2026-04-25 04:22 | -33.95050 | 151.18021 | 25 ft | 4 kts | 167° |
| 2026-04-25 04:22 | -33.95095 | 151.18042 | 28 ft | 10 kts | 139° |
| 2026-04-25 04:22 | -33.95097 | 151.18141 | 28 ft | 15 kts | 76° |
| 2026-04-25 04:23 | -33.95069 | 151.18285 | 24 ft | 20 kts | 78° |
| 2026-04-25 04:23 | -33.95037 | 151.18465 | 26 ft | 23 kts | 79° |
| 2026-04-25 04:23 | -33.95002 | 151.18667 | 25 ft | 26 kts | 77° |
| 2026-04-25 04:23 | -33.95001 | 151.18830 | 25 ft | 16 kts | 127° |
| 2026-04-25 04:24 | -33.95041 | 151.18853 | 25 ft | 0 kts | 168° |
| 2026-04-25 04:24 | -33.95101 | 151.18869 | 24 ft | 34 kts | 168° |
| 2026-04-25 04:25 | -33.95374 | 151.18942 | 21 ft | 83 kts | 168° |
| 2026-04-25 04:25 | -33.96140 | 151.19137 | 28 ft | 139 kts | 168° |
| 2026-04-25 04:25 | -33.97190 | 151.19403 | 362 ft | 152 kts | 156° |
| 2026-04-25 04:25 | -33.98221 | 151.20436 | 1055 ft | 149 kts | 123° |
| 2026-04-25 04:26 | -33.98833 | 151.21471 | 1576 ft | 154 kts | 122° |
| 2026-04-25 04:26 | -33.99259 | 151.22195 | 1877 ft | 163 kts | 124° |
| 2026-04-25 04:26 | -33.99985 | 151.23354 | 2236 ft | 183 kts | 126° |
| 2026-04-25 04:26 | -34.00848 | 151.24596 | 2650 ft | 205 kts | 133° |
| 2026-04-25 04:27 | -34.01984 | 151.25757 | 3087 ft | 226 kts | 140° |
| 2026-04-25 04:27 | -34.03138 | 151.27146 | 3570 ft | 244 kts | 122° |
| 2026-04-25 04:27 | -34.04225 | 151.28833 | 4122 ft | 264 kts | 137° |
| 2026-04-25 04:27 | -34.05687 | 151.30246 | 4894 ft | 272 kts | 142° |
| 2026-04-25 04:28 | -34.07201 | 151.31590 | 5856 ft | 273 kts | 144° |
| 2026-04-25 04:28 | -34.08744 | 151.32920 | 6840 ft | 274 kts | 144° |
| 2026-04-25 04:28 | -34.10312 | 151.34264 | 7719 ft | 277 kts | 144° |
| 2026-04-25 04:28 | -34.11891 | 151.35617 | 8653 ft | 278 kts | 144° |
| 2026-04-25 04:29 | -34.13332 | 151.37178 | 9527 ft | 282 kts | 129° |
| 2026-04-25 04:29 | -34.14361 | 151.39209 | 10372 ft | 286 kts | 112° |
| 2026-04-25 04:29 | -34.15088 | 151.41488 | 10934 ft | 301 kts | 111° |
| 2026-04-25 04:29 | -34.15872 | 151.43934 | 11203 ft | 324 kts | 111° |
| 2026-04-25 04:30 | -34.16714 | 151.46537 | 11647 ft | 338 kts | 111° |
| 2026-04-25 04:30 | -34.17580 | 151.49201 | 12440 ft | 342 kts | 111° |
| 2026-04-25 04:30 | -34.18453 | 151.51886 | 13204 ft | 346 kts | 112° |
| 2026-04-25 04:30 | -34.19338 | 151.54609 | 13980 ft | 350 kts | 112° |
| 2026-04-25 04:31 | -34.20221 | 151.57329 | 14683 ft | 354 kts | 112° |
| 2026-04-25 04:31 | -34.21122 | 151.60104 | 15392 ft | 356 kts | 112° |
| 2026-04-25 04:31 | -34.22025 | 151.62892 | 16096 ft | 359 kts | 112° |
| 2026-04-25 04:31 | -34.22942 | 151.65727 | 16779 ft | 363 kts | 112° |
| 2026-04-25 04:32 | -34.23866 | 151.68585 | 17458 ft | 366 kts | 112° |
| 2026-04-25 04:32 | -34.24796 | 151.71462 | 18133 ft | 369 kts | 112° |
| 2026-04-25 04:32 | -34.25733 | 151.74366 | 18778 ft | 373 kts | 112° |
| 2026-04-25 04:32 | -34.26678 | 151.77295 | 19371 ft | 375 kts | 112° |
| 2026-04-25 04:33 | -34.27626 | 151.80238 | 19974 ft | 377 kts | 112° |
| 2026-04-25 04:33 | -34.28583 | 151.83212 | 20530 ft | 381 kts | 112° |
| 2026-04-25 04:33 | -34.29545 | 151.86205 | 21119 ft | 383 kts | 112° |
| 2026-04-25 04:33 | -34.30513 | 151.89217 | 21702 ft | 385 kts | 112° |
| 2026-04-25 04:34 | -34.31488 | 151.92256 | 22280 ft | 388 kts | 112° |
| 2026-04-25 04:34 | -34.32499 | 151.95293 | 22866 ft | 390 kts | 115° |
| 2026-04-25 04:34 | -34.33779 | 151.98195 | 23443 ft | 391 kts | 121° |
| 2026-04-25 04:34 | -34.35158 | 152.00998 | 23978 ft | 394 kts | 121° |
| 2026-04-25 04:35 | -34.36557 | 152.03864 | 24445 ft | 397 kts | 121° |
| 2026-04-25 04:35 | -34.37961 | 152.06749 | 24896 ft | 399 kts | 121° |
| 2026-04-25 04:35 | -34.39375 | 152.09660 | 25341 ft | 401 kts | 121° |
| 2026-04-25 04:35 | -34.40795 | 152.12582 | 25779 ft | 404 kts | 121° |
| 2026-04-25 04:36 | -34.42222 | 152.15522 | 26209 ft | 406 kts | 121° |
| 2026-04-25 04:36 | -34.43657 | 152.18480 | 26626 ft | 408 kts | 121° |
| 2026-04-25 04:36 | -34.45097 | 152.21451 | 27037 ft | 411 kts | 121° |
| 2026-04-25 04:36 | -34.46547 | 152.24447 | 27441 ft | 413 kts | 121° |
| 2026-04-25 04:37 | -34.48004 | 152.27460 | 27827 ft | 415 kts | 121° |
| 2026-04-25 04:37 | -34.49468 | 152.30491 | 28213 ft | 418 kts | 121° |
| 2026-04-25 04:37 | -34.50944 | 152.33547 | 28594 ft | 420 kts | 121° |
| 2026-04-25 04:37 | -34.52420 | 152.36607 | 28943 ft | 422 kts | 121° |
| 2026-04-25 04:38 | -34.53907 | 152.39693 | 29288 ft | 424 kts | 121° |
| 2026-04-25 04:38 | -34.55397 | 152.42787 | 29627 ft | 426 kts | 121° |
| 2026-04-25 04:38 | -34.56896 | 152.45903 | 29952 ft | 429 kts | 121° |
| 2026-04-25 04:38 | -34.58402 | 152.49036 | 30278 ft | 431 kts | 121° |
| 2026-04-25 04:39 | -34.59914 | 152.52185 | 30585 ft | 433 kts | 121° |
| 2026-04-25 04:39 | -34.61432 | 152.55348 | 30886 ft | 434 kts | 121° |
| 2026-04-25 04:39 | -34.62955 | 152.58525 | 31164 ft | 436 kts | 121° |
| 2026-04-25 04:39 | -34.64484 | 152.61718 | 31455 ft | 438 kts | 121° |
| 2026-04-25 04:40 | -34.66016 | 152.64920 | 31774 ft | 438 kts | 121° |
| 2026-04-25 04:40 | -34.67546 | 152.68122 | 32143 ft | 438 kts | 121° |
| 2026-04-25 04:40 | -34.69074 | 152.71320 | 32503 ft | 437 kts | 122° |
| 2026-04-25 04:40 | -34.70597 | 152.74513 | 32861 ft | 436 kts | 122° |
| 2026-04-25 04:41 | -34.72114 | 152.77696 | 33225 ft | 436 kts | 122° |
| 2026-04-25 04:41 | -34.73615 | 152.80846 | 33549 ft | 435 kts | 122° |
| 2026-04-25 04:41 | -34.75146 | 152.84064 | 33917 ft | 434 kts | 122° |
| 2026-04-25 04:41 | -34.76633 | 152.87191 | 34293 ft | 432 kts | 122° |
| 2026-04-25 04:42 | -34.78136 | 152.90356 | 34533 ft | 433 kts | 122° |
| 2026-04-25 04:42 | -34.79642 | 152.93529 | 34756 ft | 433 kts | 122° |
| 2026-04-25 04:42 | -34.81166 | 152.96744 | 35039 ft | 432 kts | 122° |
| 2026-04-25 04:42 | -34.82646 | 152.99866 | 35299 ft | 431 kts | 122° |
| 2026-04-25 04:43 | -34.84141 | 153.03027 | 35559 ft | 430 kts | 122° |
| 2026-04-25 04:43 | -34.85633 | 153.06182 | 35805 ft | 430 kts | 122° |
| 2026-04-25 04:43 | -34.87123 | 153.09334 | 36040 ft | 429 kts | 122° |
| 2026-04-25 04:43 | -34.88608 | 153.12480 | 36273 ft | 428 kts | 122° |
| 2026-04-25 04:44 | -34.90088 | 153.15621 | 36572 ft | 426 kts | 122° |
| 2026-04-25 04:44 | -34.91564 | 153.18754 | 36814 ft | 425 kts | 122° |
| 2026-04-25 04:44 | -34.93034 | 153.21876 | 37019 ft | 424 kts | 122° |
| 2026-04-25 04:44 | -34.94502 | 153.24996 | 37227 ft | 424 kts | 122° |
| 2026-04-25 04:45 | -34.95970 | 153.28121 | 37414 ft | 423 kts | 122° |
| 2026-04-25 04:45 | -34.97432 | 153.31235 | 37606 ft | 423 kts | 122° |
| 2026-04-25 04:45 | -34.98891 | 153.34347 | 37789 ft | 422 kts | 122° |
| 2026-04-25 04:45 | -35.00352 | 153.37463 | 37968 ft | 422 kts | 122° |
| 2026-04-25 04:46 | -35.01806 | 153.40570 | 38132 ft | 421 kts | 122° |
| 2026-04-25 04:46 | -35.03242 | 153.43640 | 38309 ft | 421 kts | 122° |
| 2026-04-25 04:46 | -35.04690 | 153.46737 | 38526 ft | 419 kts | 122° |
| 2026-04-25 04:46 | -35.06132 | 153.49826 | 38695 ft | 419 kts | 122° |
| 2026-04-25 04:47 | -35.07575 | 153.52920 | 38833 ft | 418 kts | 122° |
| 2026-04-25 04:47 | -35.09014 | 153.56006 | 38970 ft | 418 kts | 122° |
| 2026-04-25 04:47 | -35.10450 | 153.59091 | 39093 ft | 418 kts | 122° |
| 2026-04-25 04:48 | -35.13320 | 153.65262 | 39263 ft | 418 kts | 122° |
| 2026-04-25 04:48 | -35.16189 | 153.71441 | 39399 ft | 418 kts | 122° |
| 2026-04-25 04:49 | -35.19056 | 153.77629 | 39406 ft | 416 kts | 122° |
| 2026-04-25 04:49 | -35.21900 | 153.83777 | 39413 ft | 416 kts | 122° |
| 2026-04-25 04:50 | -35.24752 | 153.89953 | 39407 ft | 418 kts | 121° |
| 2026-04-25 04:50 | -35.27620 | 153.96175 | 39410 ft | 419 kts | 121° |
| 2026-04-25 04:51 | -35.30478 | 154.02388 | 39414 ft | 419 kts | 121° |
| 2026-04-25 04:51 | -35.33331 | 154.08600 | 39417 ft | 417 kts | 121° |
| 2026-04-25 04:52 | -35.36168 | 154.14789 | 39412 ft | 417 kts | 121° |
| 2026-04-25 04:52 | -35.39006 | 154.20991 | 39412 ft | 417 kts | 121° |
| 2026-04-25 04:53 | -35.41840 | 154.27198 | 39410 ft | 417 kts | 121° |
| 2026-04-25 04:53 | -35.44672 | 154.33411 | 39418 ft | 417 kts | 121° |
| 2026-04-25 04:54 | -35.47495 | 154.39614 | 39420 ft | 415 kts | 121° |
| 2026-04-25 04:54 | -35.50305 | 154.45800 | 39420 ft | 415 kts | 121° |
| 2026-04-25 04:55 | -35.53116 | 154.52000 | 39420 ft | 415 kts | 121° |
| 2026-04-25 04:55 | -35.55904 | 154.58161 | 39420 ft | 415 kts | 121° |
| 2026-04-25 04:56 | -35.58707 | 154.64361 | 39425 ft | 415 kts | 121° |
| 2026-04-25 04:56 | -35.61444 | 154.70611 | 39431 ft | 416 kts | 117° |
| 2026-04-25 04:57 | -35.64011 | 154.76975 | 39430 ft | 416 kts | 118° |
| 2026-04-25 04:57 | -35.66610 | 154.83330 | 39429 ft | 415 kts | 118° |
| 2026-04-25 04:58 | -35.69194 | 154.89679 | 39430 ft | 415 kts | 118° |
| 2026-04-25 04:58 | -35.71770 | 154.96037 | 39429 ft | 415 kts | 118° |
| 2026-04-25 04:59 | -35.74343 | 155.02406 | 39423 ft | 415 kts | 118° |
| 2026-04-25 04:59 | -35.76912 | 155.08778 | 39422 ft | 414 kts | 118° |
| 2026-04-25 05:00 | -35.79471 | 155.15138 | 39424 ft | 414 kts | 118° |
| 2026-04-25 05:00 | -35.82028 | 155.21504 | 39421 ft | 414 kts | 118° |
| 2026-04-25 05:01 | -35.84560 | 155.27821 | 39421 ft | 414 kts | 118° |
| 2026-04-25 05:01 | -35.87109 | 155.34193 | 39421 ft | 414 kts | 118° |
| 2026-04-25 05:02 | -35.89654 | 155.40568 | 39424 ft | 414 kts | 118° |
| 2026-04-25 05:02 | -35.92197 | 155.46949 | 39423 ft | 414 kts | 118° |
| 2026-04-25 05:03 | -35.94721 | 155.53296 | 39427 ft | 415 kts | 117° |
| 2026-04-25 05:03 | -35.95991 | 155.56494 | 39425 ft | 415 kts | 117° |
| 2026-04-25 05:05 | -36.04811 | 155.78793 | 39438 ft | 415 kts | 117° |
| 2026-04-25 05:05 | -36.07336 | 155.85208 | 39441 ft | 415 kts | 117° |
| 2026-04-25 05:06 | -36.09860 | 155.91630 | 39444 ft | 415 kts | 117° |
| 2026-04-25 05:06 | -36.12381 | 155.98056 | 39441 ft | 415 kts | 117° |
| 2026-04-25 05:07 | -36.14893 | 156.04475 | 39446 ft | 414 kts | 117° |
| 2026-04-25 05:07 | -36.17401 | 156.10895 | 39443 ft | 414 kts | 117° |
| 2026-04-25 05:08 | -36.19902 | 156.17311 | 39423 ft | 414 kts | 117° |
| 2026-04-25 05:08 | -36.22401 | 156.23733 | 39425 ft | 412 kts | 117° |
| 2026-04-25 05:09 | -36.24859 | 156.30077 | 39440 ft | 411 kts | 117° |
| 2026-04-25 05:09 | -36.27335 | 156.36460 | 39439 ft | 416 kts | 117° |
| 2026-04-25 05:10 | -36.29854 | 156.42966 | 39442 ft | 421 kts | 117° |
| 2026-04-25 05:10 | -36.32394 | 156.49547 | 39441 ft | 425 kts | 117° |
| 2026-04-25 05:11 | -36.34960 | 156.56208 | 39444 ft | 430 kts | 117° |
| 2026-04-25 05:11 | -36.37540 | 156.62922 | 39444 ft | 433 kts | 117° |
| 2026-04-25 05:12 | -36.40994 | 156.71934 | 39444 ft | 435 kts | 116° |
| 2026-04-25 05:12 | -36.43569 | 156.78668 | 39441 ft | 421 kts | 116° |
| 2026-04-25 05:13 | -36.44801 | 156.81901 | 39442 ft | 408 kts | 117° |
| 2026-04-25 05:13 | -36.46016 | 156.85087 | 39444 ft | 409 kts | 117° |
| 2026-04-25 05:13 | -36.48465 | 156.91510 | 39445 ft | 414 kts | 116° |
| 2026-04-25 05:14 | -36.48879 | 156.92600 | 39445 ft | 414 kts | 116° |
| 2026-04-25 05:15 | -36.56643 | 157.13081 | 39446 ft | 414 kts | 116° |
| 2026-04-25 05:16 | -36.59185 | 157.19816 | 39446 ft | 414 kts | 116° |
| 2026-04-25 05:16 | -36.61631 | 157.26309 | 39447 ft | 414 kts | 116° |
| 2026-04-25 05:17 | -36.64075 | 157.32814 | 39449 ft | 414 kts | 116° |
| 2026-04-25 05:18 | -36.68877 | 157.45630 | 39440 ft | 414 kts | 116° |
| 2026-04-25 05:18 | -36.71310 | 157.52143 | 39442 ft | 415 kts | 116° |
| 2026-04-25 05:19 | -36.73742 | 157.58666 | 39447 ft | 415 kts | 116° |
| 2026-04-25 05:19 | -36.76158 | 157.65163 | 39447 ft | 415 kts | 116° |
| 2026-04-25 05:20 | -36.78585 | 157.71702 | 39452 ft | 416 kts | 116° |
| 2026-04-25 05:20 | -36.81012 | 157.78254 | 39454 ft | 416 kts | 116° |
| 2026-04-25 05:21 | -36.83436 | 157.84811 | 39456 ft | 416 kts | 116° |
| 2026-04-25 05:21 | -36.85860 | 157.91383 | 39456 ft | 416 kts | 116° |
| 2026-04-25 05:22 | -36.88279 | 157.97956 | 39461 ft | 417 kts | 116° |
| 2026-04-25 05:22 | -36.90697 | 158.04538 | 39461 ft | 417 kts | 116° |
| 2026-04-25 05:23 | -36.91906 | 158.07836 | 39464 ft | 417 kts | 115° |
| 2026-04-25 05:24 | -36.97777 | 158.23896 | 39465 ft | 417 kts | 115° |
| 2026-04-25 05:24 | -37.00186 | 158.30511 | 39463 ft | 417 kts | 115° |
| 2026-04-25 05:25 | -37.02681 | 158.37374 | 39460 ft | 417 kts | 115° |
| 2026-04-25 05:25 | -37.05078 | 158.43976 | 39460 ft | 416 kts | 115° |
| 2026-04-25 05:26 | -37.07455 | 158.50533 | 39462 ft | 416 kts | 115° |
| 2026-04-25 05:26 | -37.09829 | 158.57144 | 39460 ft | 416 kts | 115° |
| 2026-04-25 05:27 | -37.12201 | 158.63748 | 39461 ft | 416 kts | 115° |
| 2026-04-25 05:27 | -37.14577 | 158.70354 | 39458 ft | 416 kts | 115° |
| 2026-04-25 05:28 | -37.16953 | 158.76971 | 39450 ft | 416 kts | 115° |
| 2026-04-25 05:28 | -37.19322 | 158.83587 | 39450 ft | 416 kts | 115° |
| 2026-04-25 05:29 | -37.21687 | 158.90211 | 39448 ft | 416 kts | 115° |
| 2026-04-25 05:29 | -37.24050 | 158.96847 | 39451 ft | 417 kts | 115° |
| 2026-04-25 05:30 | -37.26412 | 159.03492 | 39453 ft | 417 kts | 115° |
| 2026-04-25 05:30 | -37.28769 | 159.10140 | 39458 ft | 417 kts | 115° |
| 2026-04-25 05:31 | -37.31131 | 159.16813 | 39461 ft | 418 kts | 115° |
| 2026-04-25 05:31 | -37.33489 | 159.23492 | 39464 ft | 418 kts | 115° |
| 2026-04-25 05:32 | -37.35832 | 159.30144 | 39471 ft | 419 kts | 115° |
| 2026-04-25 05:32 | -37.38191 | 159.36854 | 39473 ft | 419 kts | 115° |
| 2026-04-25 05:33 | -37.40545 | 159.43567 | 39471 ft | 420 kts | 115° |
| 2026-04-25 05:33 | -37.41721 | 159.46926 | 39472 ft | 420 kts | 115° |
| 2026-04-25 05:35 | -37.49883 | 159.70343 | 39478 ft | 420 kts | 114° |
| 2026-04-25 05:35 | -37.52220 | 159.77083 | 39475 ft | 420 kts | 114° |
| 2026-04-25 05:36 | -37.54551 | 159.83820 | 39472 ft | 419 kts | 114° |
| 2026-04-25 05:36 | -37.56876 | 159.90552 | 39467 ft | 419 kts | 114° |
| 2026-04-25 05:37 | -37.59197 | 159.97293 | 39463 ft | 419 kts | 114° |
| 2026-04-25 05:37 | -37.61513 | 160.04033 | 39461 ft | 419 kts | 114° |
| 2026-04-25 05:38 | -37.63825 | 160.10774 | 39450 ft | 418 kts | 114° |
| 2026-04-25 05:38 | -37.66131 | 160.17516 | 39453 ft | 418 kts | 114° |
| 2026-04-25 05:39 | -37.68438 | 160.24273 | 39454 ft | 419 kts | 114° |
| 2026-04-25 05:39 | -37.70723 | 160.30985 | 39456 ft | 419 kts | 114° |
| 2026-04-25 05:40 | -37.73025 | 160.37761 | 39457 ft | 419 kts | 114° |
| 2026-04-25 05:40 | -37.75323 | 160.44538 | 39459 ft | 420 kts | 114° |
| 2026-04-25 05:41 | -37.77615 | 160.51317 | 39460 ft | 420 kts | 114° |
| 2026-04-25 05:41 | -37.79909 | 160.58115 | 39467 ft | 421 kts | 114° |
| 2026-04-25 05:42 | -37.82201 | 160.64925 | 39465 ft | 421 kts | 114° |
| 2026-04-25 05:42 | -37.84495 | 160.71754 | 39466 ft | 421 kts | 113° |
| 2026-04-25 05:43 | -37.86784 | 160.78586 | 39468 ft | 422 kts | 113° |
| 2026-04-25 05:43 | -37.89070 | 160.85425 | 39469 ft | 422 kts | 113° |
| 2026-04-25 05:44 | -37.91350 | 160.92261 | 39472 ft | 422 kts | 113° |
| 2026-04-25 05:44 | -37.93628 | 160.99111 | 39473 ft | 422 kts | 113° |
| 2026-04-25 05:45 | -37.95903 | 161.05964 | 39469 ft | 422 kts | 113° |
| 2026-04-25 05:45 | -37.98158 | 161.12774 | 39468 ft | 422 kts | 113° |
| 2026-04-25 05:46 | -38.00434 | 161.19666 | 39463 ft | 421 kts | 113° |
| 2026-04-25 05:46 | -38.02694 | 161.26521 | 39462 ft | 421 kts | 113° |
| 2026-04-25 05:47 | -38.04932 | 161.33330 | 39460 ft | 421 kts | 113° |
| 2026-04-25 05:47 | -38.07180 | 161.40183 | 39455 ft | 420 kts | 113° |
| 2026-04-25 05:48 | -38.09423 | 161.47040 | 39444 ft | 420 kts | 113° |
| 2026-04-25 05:48 | -38.10166 | 161.49313 | 39443 ft | 420 kts | 113° |
| 2026-04-25 05:49 | -38.16010 | 161.67265 | 39448 ft | 421 kts | 112° |
| 2026-04-25 05:50 | -38.18240 | 161.74145 | 39450 ft | 421 kts | 112° |
| 2026-04-25 05:50 | -38.20472 | 161.81049 | 39454 ft | 422 kts | 112° |
| 2026-04-25 05:51 | -38.22685 | 161.87907 | 39452 ft | 422 kts | 112° |
| 2026-04-25 05:51 | -38.24911 | 161.94826 | 39455 ft | 423 kts | 112° |
| 2026-04-25 05:52 | -38.27135 | 162.01755 | 39461 ft | 423 kts | 112° |
| 2026-04-25 05:52 | -38.29358 | 162.08697 | 39463 ft | 423 kts | 112° |
| 2026-04-25 05:53 | -38.31578 | 162.15646 | 39467 ft | 424 kts | 112° |
| 2026-04-25 05:53 | -38.33795 | 162.22604 | 39468 ft | 424 kts | 112° |
| 2026-04-25 05:54 | -38.36011 | 162.29577 | 39465 ft | 424 kts | 112° |
| 2026-04-25 05:54 | -38.39325 | 162.40036 | 39465 ft | 424 kts | 112° |
| 2026-04-25 05:55 | -38.41529 | 162.47013 | 39460 ft | 424 kts | 112° |
| 2026-04-25 05:55 | -38.43726 | 162.53984 | 39459 ft | 424 kts | 112° |
| 2026-04-25 05:56 | -38.45922 | 162.60970 | 39457 ft | 424 kts | 112° |
| 2026-04-25 05:56 | -38.48093 | 162.67962 | 39383 ft | 425 kts | 112° |
| 2026-04-25 05:57 | -38.50268 | 162.74907 | 39450 ft | 423 kts | 112° |
| 2026-04-25 05:57 | -38.52458 | 162.81879 | 39447 ft | 423 kts | 112° |
| 2026-04-25 05:58 | -38.54639 | 162.88865 | 39433 ft | 423 kts | 112° |
| 2026-04-25 05:58 | -38.56462 | 162.94725 | 39434 ft | 423 kts | 112° |
| 2026-04-25 06:00 | -38.62973 | 163.16692 | 39440 ft | 425 kts | 111° |
| 2026-04-25 06:00 | -38.64912 | 163.23277 | 39442 ft | 426 kts | 111° |
| 2026-04-25 06:01 | -38.69132 | 163.37709 | 39448 ft | 427 kts | 111° |
| 2026-04-25 06:02 | -38.71208 | 163.44841 | 39452 ft | 428 kts | 111° |
| 2026-04-25 06:02 | -38.73278 | 163.51986 | 39455 ft | 428 kts | 111° |
| 2026-04-25 06:03 | -38.75348 | 163.59148 | 39456 ft | 428 kts | 111° |
| 2026-04-25 06:03 | -38.77412 | 163.66310 | 39452 ft | 429 kts | 111° |
| 2026-04-25 06:04 | -38.79471 | 163.73473 | 39447 ft | 429 kts | 110° |
| 2026-04-25 06:04 | -38.81527 | 163.80647 | 39444 ft | 429 kts | 110° |
| 2026-04-25 06:05 | -38.83580 | 163.87827 | 39444 ft | 428 kts | 110° |
| 2026-04-25 06:05 | -38.85626 | 163.95006 | 39440 ft | 428 kts | 110° |
| 2026-04-25 06:06 | -38.87667 | 164.02185 | 39438 ft | 428 kts | 110° |
| 2026-04-25 06:06 | -38.89688 | 164.09312 | 39428 ft | 428 kts | 110° |
| 2026-04-25 06:07 | -38.91732 | 164.16542 | 39432 ft | 428 kts | 110° |
| 2026-04-25 06:07 | -38.93758 | 164.23725 | 39426 ft | 428 kts | 110° |
| 2026-04-25 06:08 | -38.95764 | 164.30859 | 39429 ft | 427 kts | 110° |
| 2026-04-25 06:08 | -38.97779 | 164.38043 | 39411 ft | 427 kts | 110° |
| 2026-04-25 06:09 | -38.99788 | 164.45226 | 39423 ft | 427 kts | 110° |
| 2026-04-25 06:09 | -39.01796 | 164.52425 | 39413 ft | 428 kts | 110° |
| 2026-04-25 06:10 | -39.03799 | 164.59628 | 39427 ft | 428 kts | 110° |
| 2026-04-25 06:10 | -39.05795 | 164.66826 | 39422 ft | 428 kts | 110° |
| 2026-04-25 06:11 | -39.07791 | 164.74041 | 39429 ft | 428 kts | 110° |
| 2026-04-25 06:11 | -39.09785 | 164.81271 | 39420 ft | 429 kts | 110° |
| 2026-04-25 06:12 | -39.11774 | 164.88502 | 39417 ft | 429 kts | 110° |
| 2026-04-25 06:12 | -39.13760 | 164.95743 | 39409 ft | 429 kts | 110° |
| 2026-04-25 06:13 | -39.15743 | 165.02994 | 39430 ft | 429 kts | 110° |
| 2026-04-25 06:14 | -39.18709 | 165.13883 | 39430 ft | 429 kts | 110° |
| 2026-04-25 06:14 | -39.20679 | 165.21135 | 39429 ft | 429 kts | 110° |
| 2026-04-25 06:15 | -39.22646 | 165.28402 | 39423 ft | 429 kts | 110° |
| 2026-04-25 06:15 | -39.24611 | 165.35676 | 39411 ft | 429 kts | 110° |
| 2026-04-25 06:16 | -39.26569 | 165.42950 | 39428 ft | 429 kts | 110° |
| 2026-04-25 06:16 | -39.28508 | 165.50172 | 39419 ft | 429 kts | 110° |
| 2026-04-25 06:17 | -39.30455 | 165.57447 | 39427 ft | 428 kts | 110° |
| 2026-04-25 06:17 | -39.32396 | 165.64717 | 39387 ft | 429 kts | 110° |
| 2026-04-25 06:18 | -39.34346 | 165.72043 | 39401 ft | 429 kts | 109° |
| 2026-04-25 06:18 | -39.36266 | 165.79280 | 39409 ft | 428 kts | 110° |
| 2026-04-25 06:19 | -39.38207 | 165.86615 | 39410 ft | 428 kts | 109° |
| 2026-04-25 06:19 | -39.40114 | 165.93847 | 39403 ft | 428 kts | 110° |
| 2026-04-25 06:20 | -39.42034 | 166.01142 | 39411 ft | 428 kts | 109° |
| 2026-04-25 06:20 | -39.43950 | 166.08446 | 39405 ft | 428 kts | 110° |
| 2026-04-25 06:21 | -39.45863 | 166.15754 | 39379 ft | 430 kts | 109° |
| 2026-04-25 06:21 | -39.47772 | 166.23085 | 39400 ft | 429 kts | 110° |
| 2026-04-25 06:22 | -39.49680 | 166.30418 | 39400 ft | 430 kts | 110° |
| 2026-04-25 06:22 | -39.51583 | 166.37763 | 39404 ft | 431 kts | 109° |
| 2026-04-25 06:23 | -39.53486 | 166.45123 | 39408 ft | 431 kts | 110° |
| 2026-04-25 06:23 | -39.55384 | 166.52490 | 39409 ft | 431 kts | 109° |
| 2026-04-25 06:24 | -39.57279 | 166.59871 | 39419 ft | 431 kts | 109° |
| 2026-04-25 06:24 | -39.59173 | 166.67264 | 39415 ft | 432 kts | 109° |
| 2026-04-25 06:25 | -39.61058 | 166.74649 | 39419 ft | 431 kts | 110° |
| 2026-04-25 06:25 | -39.62567 | 166.80567 | 39380 ft | 432 kts | 109° |
| 2026-04-25 06:26 | -39.64446 | 166.87965 | 39380 ft | 432 kts | 109° |
| 2026-04-25 06:26 | -39.66310 | 166.95327 | 39384 ft | 432 kts | 109° |
| 2026-04-25 06:27 | -39.68192 | 167.02785 | 39383 ft | 432 kts | 109° |
| 2026-04-25 06:27 | -39.70054 | 167.10188 | 39386 ft | 431 kts | 109° |
| 2026-04-25 06:28 | -39.71914 | 167.17592 | 39376 ft | 431 kts | 109° |
| 2026-04-25 06:28 | -39.73766 | 167.24997 | 39370 ft | 432 kts | 109° |
| 2026-04-25 06:29 | -39.75617 | 167.32422 | 39382 ft | 431 kts | 109° |
| 2026-04-25 06:29 | -39.77460 | 167.39835 | 39372 ft | 432 kts | 109° |
| 2026-04-25 06:30 | -39.79300 | 167.47261 | 39377 ft | 431 kts | 109° |
| 2026-04-25 06:30 | -39.80826 | 167.53434 | 39364 ft | 432 kts | 109° |
| 2026-04-25 06:31 | -39.82959 | 167.62091 | 39362 ft | 433 kts | 109° |
| 2026-04-25 06:31 | -39.84493 | 167.68343 | 39363 ft | 433 kts | 109° |
| 2026-04-25 06:32 | -39.86621 | 167.77037 | 39368 ft | 434 kts | 109° |
| 2026-04-25 06:32 | -39.88152 | 167.83313 | 39372 ft | 435 kts | 109° |
| 2026-04-25 06:33 | -39.89980 | 167.90823 | 39374 ft | 435 kts | 109° |
| 2026-04-25 06:33 | -39.91807 | 167.98351 | 39372 ft | 436 kts | 109° |
| 2026-04-25 06:34 | -39.93629 | 168.05895 | 39381 ft | 437 kts | 109° |
| 2026-04-25 06:34 | -39.95447 | 168.13441 | 39383 ft | 437 kts | 109° |
| 2026-04-25 06:35 | -39.97266 | 168.21003 | 39387 ft | 437 kts | 109° |
| 2026-04-25 06:35 | -39.99079 | 168.28576 | 39376 ft | 437 kts | 108° |
| 2026-04-25 06:36 | -40.00887 | 168.36157 | 39374 ft | 437 kts | 109° |
| 2026-04-25 06:36 | -40.02687 | 168.43726 | 39377 ft | 437 kts | 109° |
| 2026-04-25 06:37 | -40.04481 | 168.51297 | 39375 ft | 436 kts | 109° |
| 2026-04-25 06:37 | -40.06271 | 168.58871 | 39375 ft | 436 kts | 109° |
| 2026-04-25 06:38 | -40.08055 | 168.66433 | 39356 ft | 436 kts | 108° |
| 2026-04-25 06:38 | -40.09828 | 168.73996 | 39355 ft | 436 kts | 109° |
| 2026-04-25 06:39 | -40.11594 | 168.81557 | 39365 ft | 435 kts | 110° |
| 2026-04-25 06:39 | -40.13359 | 168.89110 | 39350 ft | 434 kts | 109° |
| 2026-04-25 06:40 | -40.15116 | 168.96661 | 39343 ft | 434 kts | 109° |
| 2026-04-25 06:40 | -40.16865 | 169.04217 | 39343 ft | 434 kts | 108° |
| 2026-04-25 06:41 | -40.18609 | 169.11772 | 39343 ft | 434 kts | 109° |
| 2026-04-25 06:41 | -40.20336 | 169.19268 | 39328 ft | 434 kts | 109° |
| 2026-04-25 06:42 | -40.22072 | 169.26831 | 39320 ft | 434 kts | 108° |
| 2026-04-25 06:42 | -40.23802 | 169.34406 | 39339 ft | 434 kts | 109° |
| 2026-04-25 06:43 | -40.25526 | 169.41979 | 39341 ft | 435 kts | 109° |
| 2026-04-25 06:43 | -40.27251 | 169.49570 | 39334 ft | 435 kts | 108° |
| 2026-04-25 06:44 | -40.28972 | 169.57174 | 39348 ft | 435 kts | 108° |
| 2026-04-25 06:44 | -40.30690 | 169.64791 | 39341 ft | 436 kts | 109° |
| 2026-04-25 06:45 | -40.32402 | 169.72415 | 39347 ft | 436 kts | 109° |
| 2026-04-25 06:45 | -40.34111 | 169.80033 | 39340 ft | 437 kts | 109° |
| 2026-04-25 06:46 | -40.35818 | 169.87674 | 39332 ft | 437 kts | 108° |
| 2026-04-25 06:46 | -40.37516 | 169.95316 | 39350 ft | 436 kts | 109° |
| 2026-04-25 06:47 | -40.39208 | 170.02952 | 39344 ft | 436 kts | 109° |
| 2026-04-25 06:47 | -40.40899 | 170.10595 | 39331 ft | 436 kts | 109° |
| 2026-04-25 06:48 | -40.42581 | 170.18229 | 39322 ft | 436 kts | 108° |
| 2026-04-25 06:48 | -40.44257 | 170.25873 | 39332 ft | 435 kts | 109° |
| 2026-04-25 06:49 | -40.45929 | 170.33505 | 39319 ft | 435 kts | 108° |
| 2026-04-25 06:49 | -40.47599 | 170.41136 | 39313 ft | 434 kts | 109° |
| 2026-04-25 06:50 | -40.49260 | 170.48758 | 39297 ft | 434 kts | 108° |
| 2026-04-25 06:50 | -40.50915 | 170.56391 | 39306 ft | 434 kts | 108° |
| 2026-04-25 06:51 | -40.52779 | 170.63917 | 39311 ft | 433 kts | 112° |
| 2026-04-25 06:51 | -40.54745 | 170.71397 | 39285 ft | 433 kts | 111° |
| 2026-04-25 06:52 | -40.56679 | 170.78903 | 39289 ft | 433 kts | 111° |
| 2026-04-25 06:52 | -40.58597 | 170.86427 | 39288 ft | 434 kts | 110° |
| 2026-04-25 06:53 | -40.60505 | 170.93962 | 39287 ft | 435 kts | 111° |
| 2026-04-25 06:53 | -40.62415 | 171.01518 | 39290 ft | 435 kts | 111° |
| 2026-04-25 06:54 | -40.64322 | 171.09095 | 39293 ft | 436 kts | 111° |
| 2026-04-25 06:54 | -40.66227 | 171.16668 | 39293 ft | 437 kts | 110° |
| 2026-04-25 06:55 | -40.68130 | 171.24278 | 39297 ft | 437 kts | 110° |
| 2026-04-25 06:55 | -40.70030 | 171.31891 | 39297 ft | 438 kts | 111° |
| 2026-04-25 06:56 | -40.71923 | 171.39511 | 39303 ft | 438 kts | 110° |
| 2026-04-25 06:56 | -40.73815 | 171.47141 | 39306 ft | 438 kts | 111° |
| 2026-04-25 06:57 | -40.75702 | 171.54776 | 39303 ft | 438 kts | 111° |
| 2026-04-25 06:57 | -40.77585 | 171.62418 | 39301 ft | 438 kts | 111° |
| 2026-04-25 06:58 | -40.79463 | 171.70056 | 39290 ft | 438 kts | 110° |
| 2026-04-25 06:58 | -40.81330 | 171.77695 | 39289 ft | 437 kts | 111° |
| 2026-04-25 06:59 | -40.83194 | 171.85337 | 39285 ft | 437 kts | 111° |
| 2026-04-25 06:59 | -40.85051 | 171.92968 | 39292 ft | 436 kts | 110° |
| 2026-04-25 07:00 | -40.86911 | 172.00590 | 39258 ft | 436 kts | 110° |
| 2026-04-25 07:00 | -40.88748 | 172.08235 | 39265 ft | 437 kts | 110° |
| 2026-04-25 07:01 | -40.90590 | 172.15899 | 39046 ft | 439 kts | 110° |
| 2026-04-25 07:01 | -40.91513 | 172.19741 | 38568 ft | 439 kts | 110° |
| 2026-04-25 07:01 | -40.92433 | 172.23581 | 38085 ft | 436 kts | 110° |
| 2026-04-25 07:01 | -40.93346 | 172.27397 | 37596 ft | 436 kts | 110° |
| 2026-04-25 07:02 | -40.94261 | 172.31225 | 37103 ft | 438 kts | 110° |
| 2026-04-25 07:02 | -40.95181 | 172.35080 | 36642 ft | 440 kts | 110° |
| 2026-04-25 07:02 | -40.96091 | 172.38898 | 36192 ft | 441 kts | 110° |
| 2026-04-25 07:02 | -40.97012 | 172.42770 | 35744 ft | 442 kts | 110° |
| 2026-04-25 07:03 | -40.97934 | 172.46653 | 35298 ft | 442 kts | 110° |
| 2026-04-25 07:03 | -40.98856 | 172.50544 | 34857 ft | 444 kts | 110° |
| 2026-04-25 07:03 | -40.99779 | 172.54447 | 34394 ft | 445 kts | 110° |
| 2026-04-25 07:03 | -41.00703 | 172.58364 | 33863 ft | 446 kts | 110° |
| 2026-04-25 07:04 | -41.01629 | 172.62290 | 33330 ft | 447 kts | 110° |
| 2026-04-25 07:04 | -41.02556 | 172.66225 | 32810 ft | 450 kts | 110° |
| 2026-04-25 07:04 | -41.03491 | 172.70202 | 32300 ft | 458 kts | 110° |
| 2026-04-25 07:04 | -41.04456 | 172.74307 | 31797 ft | 474 kts | 109° |
| 2026-04-25 07:05 | -41.05437 | 172.78494 | 31404 ft | 475 kts | 109° |
| 2026-04-25 07:05 | -41.06402 | 172.82635 | 30924 ft | 466 kts | 109° |
| 2026-04-25 07:05 | -41.07348 | 172.86703 | 30436 ft | 459 kts | 109° |
| 2026-04-25 07:05 | -41.08286 | 172.90735 | 29866 ft | 458 kts | 109° |
| 2026-04-25 07:06 | -41.09230 | 172.94790 | 29259 ft | 463 kts | 109° |
| 2026-04-25 07:06 | -41.10176 | 172.98866 | 28659 ft | 460 kts | 109° |
| 2026-04-25 07:06 | -41.11108 | 173.02891 | 28072 ft | 454 kts | 109° |
| 2026-04-25 07:06 | -41.12026 | 173.06863 | 27506 ft | 448 kts | 109° |
| 2026-04-25 07:07 | -41.12934 | 173.10801 | 26943 ft | 445 kts | 109° |
| 2026-04-25 07:07 | -41.13840 | 173.14727 | 26404 ft | 450 kts | 109° |
| 2026-04-25 07:07 | -41.14783 | 173.18810 | 25873 ft | 475 kts | 109° |
| 2026-04-25 07:07 | -41.15763 | 173.23063 | 25343 ft | 488 kts | 108° |
| 2026-04-25 07:08 | -41.16755 | 173.27392 | 24820 ft | 491 kts | 108° |
| 2026-04-25 07:08 | -41.17741 | 173.31709 | 24306 ft | 487 kts | 108° |
| 2026-04-25 07:08 | -41.18717 | 173.35993 | 23800 ft | 483 kts | 108° |
| 2026-04-25 07:08 | -41.19684 | 173.40245 | 23209 ft | 479 kts | 108° |
| 2026-04-25 07:09 | -41.20641 | 173.44460 | 22623 ft | 474 kts | 108° |
| 2026-04-25 07:09 | -41.21587 | 173.48629 | 22048 ft | 470 kts | 108° |
| 2026-04-25 07:09 | -41.22524 | 173.52768 | 21483 ft | 466 kts | 108° |
| 2026-04-25 07:09 | -41.23451 | 173.56868 | 20941 ft | 462 kts | 108° |
| 2026-04-25 07:10 | -41.24370 | 173.60941 | 20389 ft | 458 kts | 108° |
| 2026-04-25 07:10 | -41.25278 | 173.64975 | 19865 ft | 455 kts | 108° |
| 2026-04-25 07:10 | -41.26181 | 173.68988 | 19333 ft | 451 kts | 108° |
| 2026-04-25 07:10 | -41.27074 | 173.72968 | 18825 ft | 448 kts | 108° |
| 2026-04-25 07:11 | -41.27958 | 173.76916 | 18276 ft | 444 kts | 108° |
| 2026-04-25 07:11 | -41.28836 | 173.80841 | 17694 ft | 441 kts | 108° |
| 2026-04-25 07:11 | -41.29706 | 173.84738 | 17122 ft | 438 kts | 108° |
| 2026-04-25 07:11 | -41.30567 | 173.88599 | 16559 ft | 434 kts | 108° |
| 2026-04-25 07:12 | -41.31420 | 173.92428 | 16029 ft | 427 kts | 108° |
| 2026-04-25 07:12 | -41.33106 | 173.99610 | 15081 ft | 387 kts | 111° |
| 2026-04-25 07:12 | -41.34002 | 174.02899 | 14672 ft | 369 kts | 112° |
| 2026-04-25 07:13 | -41.34869 | 174.06024 | 14256 ft | 353 kts | 112° |
| 2026-04-25 07:13 | -41.35697 | 174.09037 | 13806 ft | 340 kts | 112° |
| 2026-04-25 07:13 | -41.36225 | 174.10978 | 13476 ft | 333 kts | 112° |
| 2026-04-25 07:13 | -41.36992 | 174.13827 | 13038 ft | 321 kts | 112° |
| 2026-04-25 07:14 | -41.37727 | 174.16575 | 12640 ft | 310 kts | 112° |
| 2026-04-25 07:14 | -41.38670 | 174.20120 | 12103 ft | 297 kts | 112° |
| 2026-04-25 07:14 | -41.39347 | 174.22670 | 11711 ft | 287 kts | 112° |
| 2026-04-25 07:14 | -41.39781 | 174.24309 | 11430 ft | 282 kts | 112° |
| 2026-04-25 07:15 | -41.40428 | 174.26746 | 11017 ft | 275 kts | 112° |
| 2026-04-25 07:15 | -41.41054 | 174.29112 | 10664 ft | 266 kts | 112° |
| 2026-04-25 07:15 | -41.41659 | 174.31405 | 10308 ft | 259 kts | 112° |
| 2026-04-25 07:15 | -41.42248 | 174.33635 | 9936 ft | 254 kts | 112° |
| 2026-04-25 07:16 | -41.42835 | 174.35858 | 9552 ft | 255 kts | 113° |
| 2026-04-25 07:16 | -41.43424 | 174.38089 | 9183 ft | 254 kts | 113° |
| 2026-04-25 07:16 | -41.44007 | 174.40300 | 8852 ft | 252 kts | 113° |
| 2026-04-25 07:16 | -41.44585 | 174.42497 | 8526 ft | 250 kts | 113° |
| 2026-04-25 07:17 | -41.45160 | 174.44681 | 8203 ft | 249 kts | 113° |
| 2026-04-25 07:17 | -41.45731 | 174.46852 | 7873 ft | 248 kts | 113° |
| 2026-04-25 07:17 | -41.46304 | 174.49032 | 7442 ft | 251 kts | 113° |
| 2026-04-25 07:17 | -41.46885 | 174.51240 | 7018 ft | 254 kts | 113° |
| 2026-04-25 07:18 | -41.47470 | 174.53470 | 6643 ft | 255 kts | 113° |
| 2026-04-25 07:18 | -41.48053 | 174.55697 | 6258 ft | 254 kts | 113° |
| 2026-04-25 07:18 | -41.48636 | 174.57923 | 5872 ft | 254 kts | 112° |
| 2026-04-25 07:18 | -41.49073 | 174.60213 | 5504 ft | 256 kts | 102° |
| 2026-04-25 07:19 | -41.49201 | 174.62595 | 5136 ft | 258 kts | 96° |
| 2026-04-25 07:19 | -41.49280 | 174.64957 | 4741 ft | 252 kts | 96° |
| 2026-04-25 07:19 | -41.49367 | 174.67261 | 4368 ft | 246 kts | 96° |
| 2026-04-25 07:19 | -41.49457 | 174.69480 | 4157 ft | 234 kts | 96° |
| 2026-04-25 07:20 | -41.49544 | 174.71611 | 3796 ft | 228 kts | 96° |
| 2026-04-25 07:20 | -41.49627 | 174.73684 | 3433 ft | 219 kts | 95° |
| 2026-04-25 07:20 | -41.49702 | 174.75648 | 3194 ft | 203 kts | 95° |
| 2026-04-25 07:20 | -41.49617 | 174.77527 | 3148 ft | 207 kts | 71° |
| 2026-04-25 07:21 | -41.48748 | 174.78952 | 2985 ft | 193 kts | 31° |
| 2026-04-25 07:21 | -41.47545 | 174.79573 | 2797 ft | 182 kts | 9° |
| 2026-04-25 07:21 | -41.46308 | 174.79779 | 2573 ft | 177 kts | 1° |
| 2026-04-25 07:21 | -41.45115 | 174.79845 | 2352 ft | 166 kts | 359° |
| 2026-04-25 07:22 | -41.43971 | 174.79925 | 2132 ft | 162 kts | 360° |
| 2026-04-25 07:22 | -41.42889 | 174.79997 | 1917 ft | 151 kts | 0° |
| 2026-04-25 07:22 | -41.41835 | 174.80068 | 1712 ft | 151 kts | 0° |
| 2026-04-25 07:22 | -41.40813 | 174.80139 | 1499 ft | 142 kts | 0° |
| 2026-04-25 07:23 | -41.39860 | 174.80198 | 1308 ft | 132 kts | 1° |
| 2026-04-25 07:23 | -41.38971 | 174.80242 | 1156 ft | 132 kts | 2° |
| 2026-04-25 07:23 | -41.38055 | 174.80334 | 1011 ft | 131 kts | 4° |
| 2026-04-25 07:23 | -41.37147 | 174.80415 | 842 ft | 131 kts | 3° |
| 2026-04-25 07:24 | -41.36229 | 174.80465 | 678 ft | 133 kts | 360° |
| 2026-04-25 07:24 | -41.35320 | 174.80516 | 459 ft | 127 kts | 3° |
| 2026-04-25 07:24 | -41.34436 | 174.80574 | 269 ft | 127 kts | 1° |
| 2026-04-25 07:24 | -41.33544 | 174.80633 | 83 ft | 129 kts | 3° |
| 2026-04-25 07:25 | -41.32692 | 174.80689 | 28 ft | 105 kts | 2° |
| 2026-04-25 07:25 | -41.32134 | 174.80728 | 44 ft | 58 kts | 2° |
| 2026-04-25 07:25 | -41.31902 | 174.80774 | 51 ft | 17 kts | 49° |
| 2026-04-25 07:25 | -41.31944 | 174.80870 | 48 ft | 15 kts | 182° |
| 2026-04-25 07:26 | -41.32025 | 174.80862 | 49 ft | 14 kts | 185° |
| 2026-04-25 07:26 | -41.32059 | 174.80859 | 48 ft | 4 kts | 181° |
| 2026-04-25 07:26 | -41.32109 | 174.80858 | 46 ft | 11 kts | 181° |
| 2026-04-25 07:26 | -41.32194 | 174.80854 | 43 ft | 11 kts | 182° |
| 2026-04-25 07:27 | -41.32293 | 174.80849 | 38 ft | 18 kts | 182° |
| 2026-04-25 07:27 | -41.32420 | 174.80840 | 34 ft | 18 kts | 184° |
| 2026-04-25 07:27 | -41.32469 | 174.80835 | 32 ft | 4 kts | 184° |
| 2026-04-25 07:27 | -41.32525 | 174.80830 | 30 ft | 12 kts | 184° |
| 2026-04-25 07:28 | -41.32620 | 174.80822 | 27 ft | 14 kts | 183° |
| 2026-04-25 07:28 | -41.32698 | 174.80819 | 28 ft | 9 kts | 170° |
| 2026-04-25 07:28 | -41.32726 | 174.80876 | 27 ft | 7 kts | 115° |
| 2026-04-25 07:28 | -41.32767 | 174.80888 | 30 ft | 4 kts | 182° |
| 2026-04-25 07:29 | -41.32809 | 174.80887 | 30 ft | 8 kts | 181° |
| 2026-04-25 07:29 | -41.32867 | 174.80885 | 29 ft | 9 kts | 181° |
| 2026-04-25 07:29 | -41.32916 | 174.80918 | 28 ft | 6 kts | 95° |
| 2026-04-25 07:29 | -41.32898 | 174.80956 | 28 ft | 6 kts | 27° |
| 2026-04-25 07:30 | -41.32876 | 174.80982 | 31 ft | 4 kts | 45° |
| 2026-04-25 07:30 | -41.32866 | 174.80997 | 28 ft | 0 kts | 54° |
| 2026-04-25 07:30 | -41.32860 | 174.81009 | 31 ft | 1 kts | 53° |
| 2026-04-25 07:30 | -41.32859 | 174.81010 | 30 ft | 0 kts | 53° |